createdAt,value
2022-08-28T00:01:22.583Z,17.08
2022-08-28T00:03:52.045Z,17.09
2022-08-28T00:06:23.055Z,17.09
2022-08-28T00:08:53.917Z,17.06
2022-08-28T00:11:22.703Z,17.05
2022-08-28T00:13:54.412Z,17.00
2022-08-28T00:16:26.595Z,16.99
2022-08-28T00:18:57.475Z,16.97
2022-08-28T00:21:26.055Z,16.97
2022-08-28T00:23:56.864Z,16.97
2022-08-28T00:26:39.030Z,16.96
2022-08-28T00:29:08.446Z,16.92
2022-08-28T00:31:38.560Z,16.91
2022-08-28T00:34:09.298Z,16.91
2022-08-28T00:36:37.582Z,16.92
2022-08-28T00:39:06.439Z,16.94
2022-08-28T00:41:35.683Z,16.89
2022-08-28T00:44:11.191Z,16.90
2022-08-28T00:46:40.333Z,16.86
2022-08-28T00:49:10.447Z,16.87
2022-08-28T00:51:57.808Z,16.89
2022-08-28T00:54:28.618Z,16.89
2022-08-28T00:56:58.332Z,16.91
2022-08-28T00:59:27.212Z,16.88
2022-08-28T01:01:56.352Z,16.86
2022-08-28T01:04:27.002Z,16.87
2022-08-28T01:06:58.348Z,16.86
2022-08-28T01:09:29.367Z,16.87
2022-08-28T01:12:04.819Z,16.88
2022-08-28T01:14:34.010Z,16.87
2022-08-28T01:17:02.460Z,16.83
2022-08-28T01:19:33.370Z,16.82
2022-08-28T01:22:07.284Z,16.81
2022-08-28T01:24:38.210Z,16.79
2022-08-28T01:27:06.691Z,16.74
2022-08-28T01:29:34.845Z,16.72
2022-08-28T01:32:03.427Z,16.67
2022-08-28T01:34:32.317Z,16.67
2022-08-28T01:37:00.475Z,16.71
2022-08-28T01:39:31.745Z,16.71
2022-08-28T01:42:01.514Z,16.66
2022-08-28T01:44:29.890Z,16.67
2022-08-28T01:46:58.835Z,16.70
2022-08-28T01:49:29.442Z,16.66
2022-08-28T01:51:59.251Z,16.68
2022-08-28T01:54:28.830Z,16.67
2022-08-28T01:56:56.950Z,16.64
2022-08-28T01:59:26.343Z,16.65
2022-08-28T02:01:55.289Z,16.65
2022-08-28T02:04:31.963Z,16.63
2022-08-28T02:07:00.986Z,16.64
2022-08-28T02:09:29.468Z,16.64
2022-08-28T02:11:57.752Z,16.62
2022-08-28T02:14:27.715Z,16.59
2022-08-28T02:16:56.331Z,16.58
2022-08-28T02:19:24.614Z,16.60
2022-08-28T02:21:52.981Z,16.58
2022-08-28T02:24:21.089Z,16.61
2022-08-28T02:26:49.216Z,16.60
2022-08-28T02:29:17.628Z,16.57
2022-08-28T02:31:47.384Z,16.55
2022-08-28T02:34:15.464Z,16.54
2022-08-28T02:36:43.867Z,16.56
2022-08-28T02:39:12.094Z,16.54
2022-08-28T02:41:40.329Z,16.54
2022-08-28T02:44:08.699Z,16.50
2022-08-28T02:46:37.129Z,16.47
2022-08-28T02:49:06.764Z,16.46
2022-08-28T02:51:35.548Z,16.43
2022-08-28T02:54:05.579Z,16.41
2022-08-28T02:56:34.397Z,16.36
2022-08-28T02:59:02.705Z,16.37
2022-08-28T03:01:30.832Z,16.33
2022-08-28T03:03:59.231Z,16.31
2022-08-28T03:06:30.889Z,16.25
2022-08-28T03:08:59.911Z,16.23
2022-08-28T03:11:28.229Z,16.23
2022-08-28T03:13:58.447Z,16.18
2022-08-28T03:16:27.900Z,16.17
2022-08-28T03:18:56.015Z,16.11
2022-08-28T03:21:25.470Z,16.10
2022-08-28T03:23:55.195Z,16.06
2022-08-28T03:26:24.563Z,16.01
2022-08-28T03:28:54.184Z,16.00
2022-08-28T03:31:25.539Z,15.97
2022-08-28T03:33:54.003Z,15.92
2022-08-28T03:36:23.047Z,15.93
2022-08-28T03:38:51.386Z,15.95
2022-08-28T03:41:22.037Z,15.94
2022-08-28T03:43:50.431Z,15.92
2022-08-28T03:46:24.276Z,15.84
2022-08-28T03:48:53.202Z,15.87
2022-08-28T03:51:29.710Z,15.85
2022-08-28T03:53:58.959Z,15.83
2022-08-28T03:56:33.429Z,15.74
2022-08-28T03:59:02.959Z,15.80
2022-08-28T04:01:33.550Z,15.83
2022-08-28T04:04:02.091Z,15.84
2022-08-28T04:06:31.434Z,15.87
2022-08-28T04:09:02.395Z,15.85
2022-08-28T04:11:34.235Z,15.81
2022-08-28T04:14:03.973Z,15.84
2022-08-28T04:16:32.089Z,15.83
2022-08-28T04:19:00.775Z,15.82
2022-08-28T04:21:31.674Z,15.84
2022-08-28T04:24:09.035Z,15.74
2022-08-28T04:26:39.108Z,15.79
2022-08-28T04:29:08.825Z,15.81
2022-08-28T04:31:37.960Z,15.80
2022-08-28T04:34:08.702Z,15.77
2022-08-28T04:36:37.058Z,15.63
2022-08-28T04:39:08.579Z,15.67
2022-08-28T04:41:39.165Z,15.70
2022-08-28T04:44:07.256Z,15.73
2022-08-28T04:46:35.554Z,15.73
2022-08-28T04:49:04.434Z,15.72
2022-08-28T04:51:38.848Z,15.67
2022-08-28T04:54:10.849Z,15.62
2022-08-28T04:56:40.913Z,15.67
2022-08-28T04:59:09.268Z,15.67
2022-08-28T05:01:37.373Z,15.62
2022-08-28T05:04:05.932Z,15.63
2022-08-28T05:06:34.371Z,15.66
2022-08-28T05:09:03.371Z,15.68
2022-08-28T05:11:33.186Z,15.68
2022-08-28T05:14:11.584Z,15.75
2022-08-28T05:16:44.725Z,15.80
2022-08-28T05:19:13.176Z,15.85
2022-08-28T05:21:42.638Z,15.90
2022-08-28T05:24:11.003Z,15.92
2022-08-28T05:26:42.224Z,15.99
2022-08-28T05:29:12.947Z,16.08
2022-08-28T05:31:42.157Z,16.11
2022-08-28T05:34:11.054Z,16.14
2022-08-28T05:36:39.683Z,16.16
2022-08-28T05:39:10.155Z,16.15
2022-08-28T05:41:38.402Z,16.11
2022-08-28T05:44:08.441Z,15.96
2022-08-28T05:46:42.426Z,15.92
2022-08-28T05:49:10.712Z,15.90
2022-08-28T05:51:40.893Z,15.81
2022-08-28T05:54:09.192Z,15.80
2022-08-28T05:56:38.634Z,15.71
2022-08-28T05:59:07.362Z,15.66
2022-08-28T06:01:37.151Z,15.52
2022-08-28T06:04:08.044Z,15.49
2022-08-28T06:06:38.304Z,15.46
2022-08-28T06:09:08.021Z,15.39
2022-08-28T06:11:35.997Z,15.46
2022-08-28T06:14:06.537Z,15.55
2022-08-28T06:16:35.539Z,15.59
2022-08-28T06:19:03.645Z,15.69
2022-08-28T06:21:33.504Z,15.71
2022-08-28T06:24:01.481Z,15.50
2022-08-28T06:26:29.539Z,15.52
2022-08-28T06:29:00.754Z,15.43
2022-08-28T06:31:33.029Z,15.48
2022-08-28T06:34:01.488Z,15.46
2022-08-28T06:36:35.159Z,15.50
2022-08-28T06:39:03.965Z,15.54
2022-08-28T06:41:34.136Z,15.50
2022-08-28T06:44:02.987Z,15.61
2022-08-28T06:46:33.814Z,15.68
2022-08-28T06:49:05.092Z,15.78
2022-08-28T06:51:35.728Z,15.89
2022-08-28T06:54:04.641Z,15.94
2022-08-28T06:56:33.462Z,15.97
2022-08-28T06:59:01.884Z,16.06
2022-08-28T07:01:31.587Z,16.20
2022-08-28T07:04:01.010Z,16.05
2022-08-28T07:06:32.810Z,16.21
2022-08-28T07:09:06.264Z,16.19
2022-08-28T07:11:35.260Z,16.32
2022-08-28T07:14:03.360Z,16.37
2022-08-28T07:16:32.358Z,16.38
2022-08-28T07:19:03.640Z,16.37
2022-08-28T07:21:32.698Z,16.40
2022-08-28T07:24:10.464Z,16.24
2022-08-28T07:26:40.975Z,16.25
2022-08-28T07:29:15.133Z,16.37
2022-08-28T07:31:52.060Z,16.45
2022-08-28T07:34:21.791Z,16.56
2022-08-28T07:36:56.346Z,16.55
2022-08-28T07:39:26.006Z,16.53
2022-08-28T07:41:54.075Z,16.53
2022-08-28T07:44:40.287Z,16.43
2022-08-28T07:47:11.569Z,16.43
2022-08-28T07:49:39.825Z,16.42
2022-08-28T07:52:08.138Z,16.49
2022-08-28T07:54:40.326Z,16.46
2022-08-28T07:57:09.705Z,16.57
2022-08-28T07:59:38.003Z,16.66
2022-08-28T08:02:07.214Z,16.72
2022-08-28T08:04:35.764Z,16.75
2022-08-28T08:07:03.958Z,16.82
2022-08-28T08:09:32.292Z,16.70
2022-08-28T08:12:01.927Z,16.66
2022-08-28T08:14:29.915Z,16.81
2022-08-28T08:17:02.772Z,16.83
2022-08-28T08:19:35.818Z,16.83
2022-08-28T08:22:08.372Z,16.90
2022-08-28T08:24:37.146Z,16.99
2022-08-28T08:27:07.321Z,16.94
2022-08-28T08:29:38.290Z,16.91
2022-08-28T08:32:08.431Z,16.97
2022-08-28T08:34:38.725Z,17.08
2022-08-28T08:37:09.109Z,17.11
2022-08-28T08:39:37.250Z,17.13
2022-08-28T08:42:09.053Z,17.15
2022-08-28T08:44:41.149Z,17.19
2022-08-28T08:47:14.775Z,17.31
2022-08-28T08:49:48.993Z,17.47
2022-08-28T08:52:29.155Z,17.65
2022-08-28T08:55:07.595Z,17.85
2022-08-28T08:57:38.155Z,17.91
2022-08-28T09:00:12.297Z,17.92
2022-08-28T09:02:46.332Z,18.02
2022-08-28T09:05:16.681Z,18.00
2022-08-28T09:07:53.184Z,18.08
2022-08-28T09:10:21.951Z,18.06
2022-08-28T09:12:54.479Z,18.16
2022-08-28T09:15:27.355Z,18.21
2022-08-28T09:17:57.412Z,18.24
2022-08-28T09:20:33.293Z,18.13
2022-08-28T09:23:01.962Z,18.19
2022-08-28T09:25:52.281Z,18.25
2022-08-28T09:28:25.089Z,18.20
2022-08-28T09:30:59.483Z,18.24
2022-08-28T09:33:32.607Z,18.21
2022-08-28T09:36:24.378Z,18.21
2022-08-28T09:39:13.601Z,18.19
2022-08-28T09:42:05.377Z,18.20
2022-08-28T09:44:34.913Z,18.30
2022-08-28T09:47:04.238Z,18.36
2022-08-28T09:49:32.592Z,18.34
2022-08-28T09:52:04.050Z,18.26
2022-08-28T09:54:33.955Z,18.31
2022-08-28T09:57:03.489Z,18.13
2022-08-28T09:59:33.117Z,18.17
2022-08-28T10:02:15.024Z,18.23
2022-08-28T10:04:50.074Z,18.22
2022-08-28T10:07:24.483Z,18.24
2022-08-28T10:09:56.106Z,18.32
2022-08-28T10:12:33.527Z,18.27
2022-08-28T10:15:05.993Z,18.36
2022-08-28T10:17:41.280Z,18.46
2022-08-28T10:20:15.661Z,18.62
2022-08-28T10:22:48.409Z,18.60
2022-08-28T10:25:23.811Z,18.58
2022-08-28T10:28:07.270Z,18.51
2022-08-28T10:30:37.647Z,18.47
2022-08-28T10:33:21.906Z,18.30
2022-08-28T10:35:54.717Z,18.24
2022-08-28T10:38:28.905Z,18.16
2022-08-28T10:40:59.096Z,18.10
2022-08-28T10:43:30.761Z,18.05
2022-08-28T10:46:01.727Z,18.03
2022-08-28T10:48:45.196Z,18.02
2022-08-28T10:51:18.778Z,18.03
2022-08-28T10:54:04.587Z,18.04
2022-08-28T10:56:37.230Z,18.08
2022-08-28T10:59:05.447Z,18.10
2022-08-28T11:01:35.398Z,18.20
2022-08-28T11:04:06.990Z,18.20
2022-08-28T11:06:37.253Z,18.15
2022-08-28T11:09:24.887Z,18.16
2022-08-28T11:11:56.447Z,18.14
2022-08-28T11:14:32.556Z,18.10
2022-08-28T11:17:02.785Z,18.10
2022-08-28T11:20:12.208Z,18.17
2022-08-28T11:22:45.858Z,18.22
2022-08-28T11:25:17.346Z,18.32
2022-08-28T11:28:14.794Z,18.23
2022-08-28T11:30:46.058Z,18.26
2022-08-28T11:33:36.015Z,18.32
2022-08-28T11:36:04.382Z,18.35
2022-08-28T11:39:12.433Z,18.35
2022-08-28T11:42:16.942Z,18.42
2022-08-28T11:44:46.521Z,18.61
2022-08-28T11:47:52.175Z,18.67
2022-08-28T11:50:26.586Z,18.72
2022-08-28T11:53:40.973Z,18.80
2022-08-28T11:56:44.120Z,18.94
2022-08-28T11:59:23.665Z,19.06
2022-08-28T12:01:54.971Z,19.16
2022-08-28T12:04:41.116Z,19.30
2022-08-28T12:07:24.211Z,19.18
2022-08-28T12:09:56.596Z,19.26
2022-08-28T12:12:55.436Z,19.43
2022-08-28T12:15:40.459Z,19.38
2022-08-28T12:18:15.880Z,19.47
2022-08-28T12:21:01.647Z,19.70
2022-08-28T12:23:38.404Z,19.75
2022-08-28T12:26:09.252Z,19.75
2022-08-28T12:28:44.897Z,19.76
2022-08-28T12:31:46.367Z,19.93
2022-08-28T12:34:16.789Z,19.97
2022-08-28T12:36:47.910Z,19.89
2022-08-28T12:39:19.773Z,20.00
2022-08-28T12:41:47.929Z,19.93
2022-08-28T12:44:18.685Z,19.91
2022-08-28T12:46:49.182Z,20.00
2022-08-28T12:49:33.942Z,20.01
2022-08-28T12:52:10.704Z,19.88
2022-08-28T12:54:38.870Z,19.89
2022-08-28T12:57:08.283Z,19.94
2022-08-28T12:59:40.048Z,20.00
2022-08-28T13:02:09.464Z,19.94
2022-08-28T13:04:38.652Z,19.88
2022-08-28T13:07:10.841Z,19.82
2022-08-28T13:09:39.673Z,19.80
2022-08-28T13:12:08.431Z,19.87
2022-08-28T13:14:43.221Z,19.87
2022-08-28T13:17:12.017Z,19.87
2022-08-28T13:19:40.351Z,19.89
2022-08-28T13:22:09.870Z,19.91
2022-08-28T13:24:40.975Z,19.88
2022-08-28T13:27:22.690Z,19.89
2022-08-28T13:29:59.999Z,19.94
2022-08-28T13:32:32.581Z,19.93
2022-08-28T13:35:10.192Z,19.91
2022-08-28T13:37:45.263Z,19.78
2022-08-28T13:40:38.167Z,19.76
2022-08-28T13:43:03.966Z,19.73
2022-08-28T13:45:40.101Z,19.65
2022-08-28T13:48:11.614Z,19.69
2022-08-28T13:50:41.947Z,19.63
2022-08-28T13:53:13.636Z,19.60
2022-08-28T13:55:43.363Z,19.52
2022-08-28T13:58:12.855Z,19.48
2022-08-28T14:00:44.014Z,19.41
2022-08-28T14:03:30.183Z,19.42
2022-08-28T14:06:02.788Z,19.50
2022-08-28T14:08:31.358Z,19.51
2022-08-28T14:11:00.681Z,19.48
2022-08-28T14:13:32.172Z,19.49
2022-08-28T14:16:04.635Z,19.55
2022-08-28T14:18:33.247Z,19.61
2022-08-28T14:21:02.677Z,19.65
2022-08-28T14:23:31.497Z,19.66
2022-08-28T14:26:05.056Z,19.58
2022-08-28T14:28:33.876Z,19.62
2022-08-28T14:31:14.229Z,19.68
2022-08-28T14:33:45.193Z,19.74
2022-08-28T14:36:18.537Z,19.68
2022-08-28T14:38:46.739Z,19.62
2022-08-28T14:41:17.183Z,19.71
2022-08-28T14:43:45.755Z,19.75
2022-08-28T14:46:18.355Z,19.67
2022-08-28T14:48:48.940Z,19.50
2022-08-28T14:51:19.348Z,19.48
2022-08-28T14:53:48.403Z,19.43
2022-08-28T14:56:16.646Z,19.46
2022-08-28T14:58:46.426Z,19.51
2022-08-28T15:01:24.806Z,19.71
2022-08-28T15:04:02.334Z,19.90
2022-08-28T15:06:32.472Z,20.04
2022-08-28T15:09:01.678Z,20.06
2022-08-28T15:11:31.339Z,20.17
2022-08-28T15:13:59.606Z,20.22
2022-08-28T15:16:31.731Z,20.20
2022-08-28T15:19:02.343Z,20.28
2022-08-28T15:21:33.321Z,20.29
2022-08-28T15:24:02.128Z,20.37
2022-08-28T15:26:33.048Z,20.39
2022-08-28T15:29:03.359Z,20.40
2022-08-28T15:31:34.948Z,20.45
2022-08-28T15:34:05.323Z,20.37
2022-08-28T15:36:34.774Z,20.38
2022-08-28T15:39:21.159Z,20.42
2022-08-28T15:41:50.038Z,20.32
2022-08-28T15:44:20.300Z,20.22
2022-08-28T15:46:55.096Z,20.17
2022-08-28T15:49:26.031Z,20.18
2022-08-28T15:51:57.532Z,20.20
2022-08-28T15:54:27.693Z,20.19
2022-08-28T15:56:55.820Z,20.17
2022-08-28T15:59:24.138Z,20.06
2022-08-28T16:02:15.208Z,19.99
2022-08-28T16:04:44.403Z,19.89
2022-08-28T16:07:12.959Z,19.91
2022-08-28T16:09:41.585Z,19.93
2022-08-28T16:12:10.549Z,19.88
2022-08-28T16:14:38.657Z,19.77
2022-08-28T16:17:10.975Z,19.73
2022-08-28T16:19:41.159Z,19.68
2022-08-28T16:22:10.097Z,19.65
2022-08-28T16:24:38.304Z,19.59
2022-08-28T16:27:09.534Z,19.53
2022-08-28T16:29:40.811Z,19.52
2022-08-28T16:32:11.682Z,19.48
2022-08-28T16:34:44.605Z,19.43
2022-08-28T16:37:14.300Z,19.36
2022-08-28T16:39:49.189Z,19.30
2022-08-28T16:42:18.567Z,19.23
2022-08-28T16:44:46.844Z,19.19
2022-08-28T16:47:15.840Z,19.15
2022-08-28T16:49:45.524Z,19.14
2022-08-28T16:52:13.677Z,19.08
2022-08-28T16:54:48.547Z,19.05
2022-08-28T16:57:17.704Z,19.01
2022-08-28T16:59:45.876Z,18.97
2022-08-28T17:02:14.920Z,18.97
2022-08-28T17:04:43.788Z,18.92
2022-08-28T17:07:15.821Z,18.91
2022-08-28T17:09:44.532Z,18.90
2022-08-28T17:12:12.967Z,18.84
2022-08-28T17:14:51.730Z,18.79
2022-08-28T17:17:25.831Z,18.73
2022-08-28T17:19:56.158Z,18.62
2022-08-28T17:22:32.030Z,18.44
2022-08-28T17:25:01.568Z,18.25
2022-08-28T17:27:31.152Z,18.22
2022-08-28T17:29:59.968Z,18.13
2022-08-28T17:32:28.307Z,18.04
2022-08-28T17:34:56.703Z,18.00
2022-08-28T17:37:26.848Z,17.91
2022-08-28T17:39:55.953Z,17.80
2022-08-28T17:42:24.191Z,17.70
2022-08-28T17:44:52.331Z,17.57
2022-08-28T17:47:21.768Z,17.51
2022-08-28T17:49:56.063Z,17.39
2022-08-28T17:52:25.977Z,17.27
2022-08-28T17:54:54.385Z,17.16
2022-08-28T17:57:24.175Z,17.06
2022-08-28T17:59:52.288Z,16.98
2022-08-28T18:02:21.485Z,16.87
2022-08-28T18:04:51.206Z,16.79
2022-08-28T18:07:19.592Z,16.73
2022-08-28T18:09:51.110Z,16.63
2022-08-28T18:12:21.940Z,16.53
2022-08-28T18:14:50.760Z,16.46
2022-08-28T18:17:19.522Z,16.39
2022-08-28T18:19:48.442Z,16.37
2022-08-28T18:22:17.876Z,16.30
2022-08-28T18:24:52.661Z,16.22
2022-08-28T18:27:21.469Z,16.18
2022-08-28T18:29:49.792Z,16.09
2022-08-28T18:32:18.985Z,16.02
2022-08-28T18:34:47.133Z,15.95
2022-08-28T18:37:16.442Z,15.88
2022-08-28T18:39:45.470Z,15.85
2022-08-28T18:42:16.119Z,15.75
2022-08-28T18:44:44.583Z,15.69
2022-08-28T18:47:13.569Z,15.63
2022-08-28T18:49:43.056Z,15.55
2022-08-28T18:52:11.223Z,15.51
2022-08-28T18:54:39.999Z,15.46
2022-08-28T18:57:10.926Z,15.43
2022-08-28T18:59:43.042Z,15.40
2022-08-28T19:02:12.909Z,15.34
2022-08-28T19:04:43.024Z,15.28
2022-08-28T19:07:13.716Z,15.22
2022-08-28T19:09:42.252Z,15.18
2022-08-28T19:12:11.206Z,15.13
2022-08-28T19:14:42.806Z,15.07
2022-08-28T19:17:11.012Z,15.05
2022-08-28T19:19:40.010Z,15.03
2022-08-28T19:22:10.651Z,14.97
2022-08-28T19:24:39.545Z,14.91
2022-08-28T19:27:08.098Z,14.88
2022-08-28T19:29:36.604Z,14.83
2022-08-28T19:32:06.779Z,14.79
2022-08-28T19:34:35.471Z,14.76
2022-08-28T19:37:07.010Z,14.70
2022-08-28T19:39:35.115Z,14.64
2022-08-28T19:42:04.130Z,14.60
2022-08-28T19:44:35.334Z,14.57
2022-08-28T19:47:05.222Z,14.53
2022-08-28T19:49:33.365Z,14.48
2022-08-28T19:52:03.081Z,14.41
2022-08-28T19:54:32.962Z,14.37
2022-08-28T19:57:01.532Z,14.35
2022-08-28T19:59:30.957Z,14.34
2022-08-28T20:01:59.371Z,14.31
2022-08-28T20:04:28.813Z,14.26
2022-08-28T20:06:57.269Z,14.23
2022-08-28T20:09:25.348Z,14.22
2022-08-28T20:11:53.373Z,14.17
2022-08-28T20:14:21.462Z,14.13
2022-08-28T20:16:51.806Z,14.09
2022-08-28T20:19:20.221Z,14.07
2022-08-28T20:21:51.192Z,14.04
2022-08-28T20:24:21.847Z,14.02
2022-08-28T20:26:51.150Z,13.97
2022-08-28T20:29:21.245Z,13.92
2022-08-28T20:31:49.618Z,13.90
2022-08-28T20:34:19.213Z,13.86
2022-08-28T20:36:49.541Z,13.82
2022-08-28T20:39:17.903Z,13.82
2022-08-28T20:41:54.568Z,13.76
2022-08-28T20:44:23.024Z,13.72
2022-08-28T20:46:54.690Z,13.68
2022-08-28T20:49:24.435Z,13.66
2022-08-28T20:51:59.146Z,13.64
2022-08-28T20:54:29.459Z,13.63
2022-08-28T20:56:58.215Z,13.60
2022-08-28T20:59:27.807Z,13.55
2022-08-28T21:02:05.324Z,13.52
2022-08-28T21:04:35.633Z,13.48
2022-08-28T21:07:05.430Z,13.45
2022-08-28T21:10:04.007Z,13.41
2022-08-28T21:12:22.468Z,13.41
2022-08-28T21:14:53.293Z,13.39
2022-08-28T21:17:29.424Z,13.37
2022-08-28T21:20:01.102Z,13.32
2022-08-28T21:22:31.790Z,13.30
2022-08-28T21:25:03.182Z,13.29
2022-08-28T21:27:31.848Z,13.27
2022-08-28T21:30:01.658Z,13.25
2022-08-28T21:32:30.787Z,13.24
2022-08-28T21:35:00.647Z,13.22
2022-08-28T21:37:28.844Z,13.18
2022-08-28T21:39:59.633Z,13.16
2022-08-28T21:42:28.777Z,13.13
2022-08-28T21:44:58.486Z,13.11
2022-08-28T21:47:28.330Z,13.09
2022-08-28T21:49:57.308Z,13.08
2022-08-28T21:52:29.096Z,13.00
2022-08-28T21:55:05.039Z,12.96
2022-08-28T21:57:34.263Z,12.94
2022-08-28T22:00:04.648Z,12.92
2022-08-28T22:02:36.097Z,12.91
2022-08-28T22:05:04.763Z,12.90
2022-08-28T22:07:35.161Z,12.89
2022-08-28T22:10:09.391Z,12.87
2022-08-28T22:12:37.722Z,12.82
2022-08-28T22:15:06.952Z,12.78
2022-08-28T22:17:36.280Z,12.75
2022-08-28T22:20:06.155Z,12.76
2022-08-28T22:22:53.087Z,12.73
2022-08-28T22:25:30.155Z,12.69
2022-08-28T22:28:01.465Z,12.66
2022-08-28T22:30:33.608Z,12.63
2022-08-28T22:33:03.508Z,12.64
2022-08-28T22:35:32.158Z,12.64
2022-08-28T22:38:00.872Z,12.64
2022-08-28T22:40:30.431Z,12.61
2022-08-28T22:42:59.825Z,12.56
2022-08-28T22:45:29.363Z,12.54
2022-08-28T22:47:58.334Z,12.52
2022-08-28T22:50:27.047Z,12.51
2022-08-28T22:52:56.531Z,12.48
2022-08-28T22:55:27.113Z,12.45
2022-08-28T22:57:56.613Z,12.42
2022-08-28T23:00:26.872Z,12.41
2022-08-28T23:02:55.800Z,12.35
2022-08-28T23:05:24.881Z,12.34
2022-08-28T23:07:55.859Z,12.30
2022-08-28T23:10:36.931Z,12.29
2022-08-28T23:13:15.301Z,12.26
2022-08-28T23:15:46.050Z,12.26
2022-08-28T23:18:14.475Z,12.23
2022-08-28T23:20:43.655Z,12.22
2022-08-28T23:23:12.236Z,12.21
2022-08-28T23:25:44.666Z,12.17
2022-08-28T23:28:15.686Z,12.14
2022-08-28T23:30:48.475Z,12.09
2022-08-28T23:33:23.693Z,12.08
2022-08-28T23:35:54.370Z,12.08
2022-08-28T23:38:22.431Z,12.07
2022-08-28T23:40:53.649Z,12.05
2022-08-28T23:43:25.349Z,12.01
2022-08-28T23:45:54.683Z,11.97
2022-08-28T23:48:25.978Z,11.95
2022-08-28T23:50:55.755Z,11.95
2022-08-28T23:53:24.092Z,11.93
2022-08-28T23:55:53.878Z,11.93
2022-08-28T23:58:25.487Z,11.88
